sensor_id;sensor_type;location;lat;lon;timestamp;P1;durP1;ratioP1;P2;durP2;ratioP2
74335;SDS011;62755;-33.398;-70.572;2022-11-28T00:00:08;14.73;;;4.25;;
74335;SDS011;62755;-33.398;-70.572;2022-11-28T00:02:39;13.05;;;4.28;;
74335;SDS011;62755;-33.398;-70.572;2022-11-28T00:05:09;17.23;;;4.45;;
74335;SDS011;62755;-33.398;-70.572;2022-11-28T00:07:39;11.60;;;4.03;;
74335;SDS011;62755;-33.398;-70.572;2022-11-28T00:10:11;14.75;;;4.40;;
74335;SDS011;62755;-33.398;-70.572;2022-11-28T00:12:40;14.63;;;4.05;;
74335;SDS011;62755;-33.398;-70.572;2022-11-28T00:15:10;12.68;;;4.20;;
74335;SDS011;62755;-33.398;-70.572;2022-11-28T00:17:40;18.15;;;4.40;;
74335;SDS011;62755;-33.398;-70.572;2022-11-28T00:20:10;12.95;;;4.45;;
74335;SDS011;62755;-33.398;-70.572;2022-11-28T00:22:40;25.77;;;4.65;;
74335;SDS011;62755;-33.398;-70.572;2022-11-28T00:25:11;12.10;;;4.10;;
74335;SDS011;62755;-33.398;-70.572;2022-11-28T00:27:41;17.27;;;4.80;;
74335;SDS011;62755;-33.398;-70.572;2022-11-28T00:30:11;13.30;;;3.97;;
74335;SDS011;62755;-33.398;-70.572;2022-11-28T00:32:41;9.85;;;3.53;;
74335;SDS011;62755;-33.398;-70.572;2022-11-28T00:35:10;9.13;;;3.70;;
74335;SDS011;62755;-33.398;-70.572;2022-11-28T00:37:40;11.07;;;3.97;;
74335;SDS011;62755;-33.398;-70.572;2022-11-28T00:40:11;10.10;;;4.07;;
74335;SDS011;62755;-33.398;-70.572;2022-11-28T00:42:41;12.20;;;3.60;;
74335;SDS011;62755;-33.398;-70.572;2022-11-28T00:45:11;17.75;;;4.57;;
74335;SDS011;62755;-33.398;-70.572;2022-11-28T00:47:40;13.52;;;4.18;;
74335;SDS011;62755;-33.398;-70.572;2022-11-28T00:50:11;14.05;;;3.95;;
74335;SDS011;62755;-33.398;-70.572;2022-11-28T00:52:41;13.45;;;4.15;;
74335;SDS011;62755;-33.398;-70.572;2022-11-28T00:55:12;18.05;;;4.18;;
74335;SDS011;62755;-33.398;-70.572;2022-11-28T00:57:42;10.93;;;3.67;;
74335;SDS011;62755;-33.398;-70.572;2022-11-28T01:00:11;9.23;;;4.35;;
74335;SDS011;62755;-33.398;-70.572;2022-11-28T01:02:42;14.60;;;3.95;;
74335;SDS011;62755;-33.398;-70.572;2022-11-28T01:05:11;17.80;;;3.72;;
74335;SDS011;62755;-33.398;-70.572;2022-11-28T01:07:41;17.23;;;4.72;;
74335;SDS011;62755;-33.398;-70.572;2022-11-28T01:10:12;17.08;;;3.88;;
74335;SDS011;62755;-33.398;-70.572;2022-11-28T01:12:42;9.68;;;3.28;;
74335;SDS011;62755;-33.398;-70.572;2022-11-28T01:15:12;12.05;;;4.55;;
74335;SDS011;62755;-33.398;-70.572;2022-11-28T01:17:41;13.57;;;4.32;;
74335;SDS011;62755;-33.398;-70.572;2022-11-28T01:20:12;12.25;;;3.85;;
74335;SDS011;62755;-33.398;-70.572;2022-11-28T01:22:42;21.33;;;3.95;;
74335;SDS011;62755;-33.398;-70.572;2022-11-28T01:25:13;18.20;;;4.05;;
74335;SDS011;62755;-33.398;-70.572;2022-11-28T01:27:43;14.10;;;4.13;;
74335;SDS011;62755;-33.398;-70.572;2022-11-28T01:30:15;26.63;;;5.03;;
74335;SDS011;62755;-33.398;-70.572;2022-11-28T01:32:48;24.10;;;4.80;;
74335;SDS011;62755;-33.398;-70.572;2022-11-28T01:35:18;13.32;;;4.40;;
74335;SDS011;62755;-33.398;-70.572;2022-11-28T01:37:49;11.75;;;4.75;;
74335;SDS011;62755;-33.398;-70.572;2022-11-28T01:40:21;18.05;;;3.65;;
74335;SDS011;62755;-33.398;-70.572;2022-11-28T01:42:50;18.25;;;4.13;;
74335;SDS011;62755;-33.398;-70.572;2022-11-28T01:45:20;13.85;;;3.63;;
74335;SDS011;62755;-33.398;-70.572;2022-11-28T01:47:51;11.98;;;4.10;;
74335;SDS011;62755;-33.398;-70.572;2022-11-28T01:50:27;13.63;;;3.80;;
74335;SDS011;62755;-33.398;-70.572;2022-11-28T01:53:02;10.80;;;4.00;;
74335;SDS011;62755;-33.398;-70.572;2022-11-28T01:55:36;14.65;;;3.83;;
74335;SDS011;62755;-33.398;-70.572;2022-11-28T01:58:10;16.88;;;4.25;;
74335;SDS011;62755;-33.398;-70.572;2022-11-28T02:00:40;15.75;;;3.80;;
74335;SDS011;62755;-33.398;-70.572;2022-11-28T02:03:10;15.57;;;3.72;;
74335;SDS011;62755;-33.398;-70.572;2022-11-28T02:05:44;12.52;;;4.25;;
74335;SDS011;62755;-33.398;-70.572;2022-11-28T02:08:16;20.92;;;3.75;;
74335;SDS011;62755;-33.398;-70.572;2022-11-28T02:10:52;12.50;;;3.92;;
74335;SDS011;62755;-33.398;-70.572;2022-11-28T02:13:46;16.35;;;3.55;;
74335;SDS011;62755;-33.398;-70.572;2022-11-28T02:16:28;22.45;;;3.88;;
74335;SDS011;62755;-33.398;-70.572;2022-11-28T02:19:27;12.90;;;3.65;;
74335;SDS011;62755;-33.398;-70.572;2022-11-28T02:22:16;19.63;;;4.28;;
74335;SDS011;62755;-33.398;-70.572;2022-11-28T02:25:02;12.57;;;3.75;;
74335;SDS011;62755;-33.398;-70.572;2022-11-28T02:31:17;15.23;;;4.28;;
74335;SDS011;62755;-33.398;-70.572;2022-11-28T02:34:03;18.10;;;4.45;;
74335;SDS011;62755;-33.398;-70.572;2022-11-28T02:36:39;16.98;;;3.67;;
74335;SDS011;62755;-33.398;-70.572;2022-11-28T02:39:15;13.88;;;3.75;;
74335;SDS011;62755;-33.398;-70.572;2022-11-28T02:41:52;10.45;;;3.40;;
74335;SDS011;62755;-33.398;-70.572;2022-11-28T02:44:26;15.13;;;3.78;;
74335;SDS011;62755;-33.398;-70.572;2022-11-28T02:47:02;14.38;;;3.97;;
74335;SDS011;62755;-33.398;-70.572;2022-11-28T02:49:37;13.75;;;4.05;;
74335;SDS011;62755;-33.398;-70.572;2022-11-28T02:52:14;13.20;;;4.13;;
74335;SDS011;62755;-33.398;-70.572;2022-11-28T02:54:47;10.18;;;4.57;;
74335;SDS011;62755;-33.398;-70.572;2022-11-28T02:57:19;20.13;;;4.13;;
74335;SDS011;62755;-33.398;-70.572;2022-11-28T02:59:49;19.05;;;7.22;;
74335;SDS011;62755;-33.398;-70.572;2022-11-28T03:02:22;15.50;;;5.60;;
74335;SDS011;62755;-33.398;-70.572;2022-11-28T03:04:58;11.27;;;4.43;;
74335;SDS011;62755;-33.398;-70.572;2022-11-28T03:07:39;25.63;;;8.00;;
74335;SDS011;62755;-33.398;-70.572;2022-11-28T03:10:32;17.95;;;4.88;;
74335;SDS011;62755;-33.398;-70.572;2022-11-28T03:13:09;15.15;;;4.00;;
74335;SDS011;62755;-33.398;-70.572;2022-11-28T03:15:46;18.90;;;4.88;;
74335;SDS011;62755;-33.398;-70.572;2022-11-28T03:18:23;15.90;;;4.78;;
74335;SDS011;62755;-33.398;-70.572;2022-11-28T03:20:59;20.33;;;5.00;;
74335;SDS011;62755;-33.398;-70.572;2022-11-28T03:23:36;13.32;;;4.47;;
74335;SDS011;62755;-33.398;-70.572;2022-11-28T03:26:08;13.75;;;4.50;;
74335;SDS011;62755;-33.398;-70.572;2022-11-28T03:28:43;15.18;;;4.25;;
74335;SDS011;62755;-33.398;-70.572;2022-11-28T03:31:17;15.45;;;4.22;;
74335;SDS011;62755;-33.398;-70.572;2022-11-28T03:33:49;15.52;;;4.32;;
74335;SDS011;62755;-33.398;-70.572;2022-11-28T03:36:24;12.85;;;3.95;;
74335;SDS011;62755;-33.398;-70.572;2022-11-28T03:38:56;19.52;;;4.80;;
74335;SDS011;62755;-33.398;-70.572;2022-11-28T03:41:32;13.98;;;3.70;;
74335;SDS011;62755;-33.398;-70.572;2022-11-28T03:44:04;21.52;;;4.10;;
74335;SDS011;62755;-33.398;-70.572;2022-11-28T03:46:37;13.90;;;3.53;;
74335;SDS011;62755;-33.398;-70.572;2022-11-28T03:49:18;13.70;;;3.78;;
74335;SDS011;62755;-33.398;-70.572;2022-11-28T03:51:54;17.42;;;4.30;;
74335;SDS011;62755;-33.398;-70.572;2022-11-28T03:54:27;11.25;;;3.92;;
74335;SDS011;62755;-33.398;-70.572;2022-11-28T03:57:04;18.40;;;4.03;;
74335;SDS011;62755;-33.398;-70.572;2022-11-28T03:59:37;17.02;;;4.85;;
74335;SDS011;62755;-33.398;-70.572;2022-11-28T04:02:13;19.73;;;3.78;;
74335;SDS011;62755;-33.398;-70.572;2022-11-28T04:04:49;13.60;;;3.63;;
74335;SDS011;62755;-33.398;-70.572;2022-11-28T04:07:25;15.63;;;4.03;;
74335;SDS011;62755;-33.398;-70.572;2022-11-28T04:10:02;15.77;;;4.57;;
74335;SDS011;62755;-33.398;-70.572;2022-11-28T04:12:38;10.70;;;3.53;;
74335;SDS011;62755;-33.398;-70.572;2022-11-28T04:15:15;17.40;;;3.63;;
74335;SDS011;62755;-33.398;-70.572;2022-11-28T04:17:50;10.32;;;3.75;;
74335;SDS011;62755;-33.398;-70.572;2022-11-28T04:20:26;12.38;;;4.03;;
74335;SDS011;62755;-33.398;-70.572;2022-11-28T04:23:02;15.77;;;3.70;;
74335;SDS011;62755;-33.398;-70.572;2022-11-28T04:25:37;9.82;;;3.47;;
74335;SDS011;62755;-33.398;-70.572;2022-11-28T04:28:12;10.13;;;3.58;;
74335;SDS011;62755;-33.398;-70.572;2022-11-28T04:30:46;11.32;;;4.13;;
74335;SDS011;62755;-33.398;-70.572;2022-11-28T04:33:18;10.93;;;4.00;;
74335;SDS011;62755;-33.398;-70.572;2022-11-28T04:35:50;11.60;;;4.28;;
74335;SDS011;62755;-33.398;-70.572;2022-11-28T04:38:22;10.88;;;4.13;;
74335;SDS011;62755;-33.398;-70.572;2022-11-28T04:40:56;19.15;;;4.38;;
74335;SDS011;62755;-33.398;-70.572;2022-11-28T04:43:31;23.60;;;4.63;;
74335;SDS011;62755;-33.398;-70.572;2022-11-28T04:46:05;12.38;;;4.30;;
74335;SDS011;62755;-33.398;-70.572;2022-11-28T04:48:37;10.30;;;3.85;;
74335;SDS011;62755;-33.398;-70.572;2022-11-28T04:51:09;13.90;;;3.80;;
74335;SDS011;62755;-33.398;-70.572;2022-11-28T04:53:49;12.70;;;3.78;;
74335;SDS011;62755;-33.398;-70.572;2022-11-28T04:56:24;13.88;;;3.83;;
74335;SDS011;62755;-33.398;-70.572;2022-11-28T05:01:29;17.73;;;4.10;;
74335;SDS011;62755;-33.398;-70.572;2022-11-28T05:04:01;13.52;;;4.82;;
74335;SDS011;62755;-33.398;-70.572;2022-11-28T05:06:31;9.88;;;4.25;;
74335;SDS011;62755;-33.398;-70.572;2022-11-28T05:09:03;12.32;;;4.22;;
74335;SDS011;62755;-33.398;-70.572;2022-11-28T05:11:33;16.02;;;4.30;;
74335;SDS011;62755;-33.398;-70.572;2022-11-28T05:14:02;13.63;;;4.97;;
74335;SDS011;62755;-33.398;-70.572;2022-11-28T05:16:32;15.32;;;4.40;;
74335;SDS011;62755;-33.398;-70.572;2022-11-28T05:19:02;13.05;;;4.00;;
74335;SDS011;62755;-33.398;-70.572;2022-11-28T05:21:31;15.93;;;4.30;;
74335;SDS011;62755;-33.398;-70.572;2022-11-28T05:24:01;12.63;;;4.00;;
74335;SDS011;62755;-33.398;-70.572;2022-11-28T05:26:32;13.55;;;4.40;;
74335;SDS011;62755;-33.398;-70.572;2022-11-28T05:29:03;15.10;;;3.88;;
74335;SDS011;62755;-33.398;-70.572;2022-11-28T05:31:33;14.60;;;5.05;;
74335;SDS011;62755;-33.398;-70.572;2022-11-28T05:34:02;15.40;;;3.92;;
74335;SDS011;62755;-33.398;-70.572;2022-11-28T05:36:32;14.77;;;4.45;;
74335;SDS011;62755;-33.398;-70.572;2022-11-28T05:39:03;21.38;;;5.10;;
74335;SDS011;62755;-33.398;-70.572;2022-11-28T05:41:32;13.43;;;3.47;;
74335;SDS011;62755;-33.398;-70.572;2022-11-28T05:44:02;12.25;;;4.63;;
74335;SDS011;62755;-33.398;-70.572;2022-11-28T05:46:32;18.95;;;4.50;;
74335;SDS011;62755;-33.398;-70.572;2022-11-28T05:49:01;16.67;;;4.50;;
74335;SDS011;62755;-33.398;-70.572;2022-11-28T05:51:31;16.90;;;4.70;;
74335;SDS011;62755;-33.398;-70.572;2022-11-28T05:54:00;9.23;;;4.32;;
74335;SDS011;62755;-33.398;-70.572;2022-11-28T05:56:32;13.90;;;4.30;;
74335;SDS011;62755;-33.398;-70.572;2022-11-28T05:59:01;9.35;;;3.75;;
74335;SDS011;62755;-33.398;-70.572;2022-11-28T06:01:31;10.65;;;4.32;;
74335;SDS011;62755;-33.398;-70.572;2022-11-28T06:04:00;22.10;;;4.70;;
74335;SDS011;62755;-33.398;-70.572;2022-11-28T06:06:30;13.10;;;4.43;;
74335;SDS011;62755;-33.398;-70.572;2022-11-28T06:09:03;10.85;;;4.20;;
74335;SDS011;62755;-33.398;-70.572;2022-11-28T06:11:34;14.13;;;4.70;;
74335;SDS011;62755;-33.398;-70.572;2022-11-28T06:14:03;16.27;;;5.07;;
74335;SDS011;62755;-33.398;-70.572;2022-11-28T06:16:33;21.83;;;4.45;;
74335;SDS011;62755;-33.398;-70.572;2022-11-28T06:19:03;13.18;;;4.60;;
74335;SDS011;62755;-33.398;-70.572;2022-11-28T06:21:33;16.77;;;4.00;;
74335;SDS011;62755;-33.398;-70.572;2022-11-28T06:24:04;14.52;;;4.47;;
74335;SDS011;62755;-33.398;-70.572;2022-11-28T06:26:34;8.55;;;4.10;;
74335;SDS011;62755;-33.398;-70.572;2022-11-28T06:29:04;11.88;;;4.80;;
74335;SDS011;62755;-33.398;-70.572;2022-11-28T06:31:33;13.70;;;3.90;;
74335;SDS011;62755;-33.398;-70.572;2022-11-28T06:34:03;12.75;;;3.88;;
74335;SDS011;62755;-33.398;-70.572;2022-11-28T06:36:32;18.25;;;4.43;;
74335;SDS011;62755;-33.398;-70.572;2022-11-28T06:39:02;9.02;;;3.72;;
74335;SDS011;62755;-33.398;-70.572;2022-11-28T06:41:33;11.73;;;4.32;;
74335;SDS011;62755;-33.398;-70.572;2022-11-28T06:44:03;20.67;;;4.60;;
74335;SDS011;62755;-33.398;-70.572;2022-11-28T06:46:32;12.13;;;4.50;;
74335;SDS011;62755;-33.398;-70.572;2022-11-28T06:49:02;15.75;;;4.85;;
74335;SDS011;62755;-33.398;-70.572;2022-11-28T06:51:32;10.77;;;4.65;;
74335;SDS011;62755;-33.398;-70.572;2022-11-28T06:54:02;22.70;;;5.28;;
74335;SDS011;62755;-33.398;-70.572;2022-11-28T06:56:33;16.25;;;5.68;;
74335;SDS011;62755;-33.398;-70.572;2022-11-28T06:59:02;12.27;;;5.28;;
74335;SDS011;62755;-33.398;-70.572;2022-11-28T07:01:32;15.23;;;5.55;;
74335;SDS011;62755;-33.398;-70.572;2022-11-28T07:04:02;16.35;;;5.45;;
74335;SDS011;62755;-33.398;-70.572;2022-11-28T07:06:32;13.77;;;5.20;;
74335;SDS011;62755;-33.398;-70.572;2022-11-28T07:09:02;16.20;;;5.82;;
74335;SDS011;62755;-33.398;-70.572;2022-11-28T07:11:33;13.57;;;5.70;;
74335;SDS011;62755;-33.398;-70.572;2022-11-28T07:14:02;16.83;;;4.88;;
74335;SDS011;62755;-33.398;-70.572;2022-11-28T07:16:32;15.50;;;5.20;;
74335;SDS011;62755;-33.398;-70.572;2022-11-28T07:19:02;13.73;;;4.97;;
74335;SDS011;62755;-33.398;-70.572;2022-11-28T07:21:31;18.50;;;5.10;;
74335;SDS011;62755;-33.398;-70.572;2022-11-28T07:24:01;16.17;;;5.25;;
74335;SDS011;62755;-33.398;-70.572;2022-11-28T07:26:31;26.55;;;5.43;;
74335;SDS011;62755;-33.398;-70.572;2022-11-28T07:29:02;15.75;;;5.13;;
74335;SDS011;62755;-33.398;-70.572;2022-11-28T07:31:32;19.50;;;4.97;;
74335;SDS011;62755;-33.398;-70.572;2022-11-28T07:34:03;15.48;;;5.18;;
74335;SDS011;62755;-33.398;-70.572;2022-11-28T07:36:33;15.43;;;5.20;;
74335;SDS011;62755;-33.398;-70.572;2022-11-28T07:39:03;15.70;;;4.95;;
74335;SDS011;62755;-33.398;-70.572;2022-11-28T07:41:36;12.63;;;5.45;;
74335;SDS011;62755;-33.398;-70.572;2022-11-28T07:44:06;15.48;;;5.15;;
74335;SDS011;62755;-33.398;-70.572;2022-11-28T07:46:37;12.95;;;4.32;;
74335;SDS011;62755;-33.398;-70.572;2022-11-28T07:49:07;13.10;;;5.18;;
74335;SDS011;62755;-33.398;-70.572;2022-11-28T07:51:37;11.25;;;5.10;;
74335;SDS011;62755;-33.398;-70.572;2022-11-28T07:54:07;15.65;;;4.57;;
74335;SDS011;62755;-33.398;-70.572;2022-11-28T07:56:38;16.45;;;4.78;;
74335;SDS011;62755;-33.398;-70.572;2022-11-28T07:59:08;20.08;;;5.57;;
74335;SDS011;62755;-33.398;-70.572;2022-11-28T08:01:37;14.38;;;4.53;;
74335;SDS011;62755;-33.398;-70.572;2022-11-28T08:04:07;17.35;;;5.18;;
74335;SDS011;62755;-33.398;-70.572;2022-11-28T08:06:38;13.70;;;4.97;;
74335;SDS011;62755;-33.398;-70.572;2022-11-28T08:09:09;16.40;;;4.65;;
74335;SDS011;62755;-33.398;-70.572;2022-11-28T08:11:41;18.73;;;5.22;;
74335;SDS011;62755;-33.398;-70.572;2022-11-28T08:14:10;20.90;;;4.97;;
74335;SDS011;62755;-33.398;-70.572;2022-11-28T08:16:40;17.15;;;5.50;;
74335;SDS011;62755;-33.398;-70.572;2022-11-28T08:19:10;15.10;;;5.30;;
74335;SDS011;62755;-33.398;-70.572;2022-11-28T08:21:39;12.70;;;4.90;;
74335;SDS011;62755;-33.398;-70.572;2022-11-28T08:24:09;18.05;;;5.15;;
74335;SDS011;62755;-33.398;-70.572;2022-11-28T08:26:41;13.13;;;4.88;;
74335;SDS011;62755;-33.398;-70.572;2022-11-28T08:29:10;14.77;;;4.68;;
74335;SDS011;62755;-33.398;-70.572;2022-11-28T08:31:40;12.88;;;5.43;;
74335;SDS011;62755;-33.398;-70.572;2022-11-28T08:34:10;15.80;;;4.90;;
74335;SDS011;62755;-33.398;-70.572;2022-11-28T08:36:39;15.35;;;5.07;;
74335;SDS011;62755;-33.398;-70.572;2022-11-28T08:39:09;15.85;;;4.93;;
74335;SDS011;62755;-33.398;-70.572;2022-11-28T08:41:39;13.50;;;5.13;;
74335;SDS011;62755;-33.398;-70.572;2022-11-28T08:44:10;17.88;;;5.70;;
74335;SDS011;62755;-33.398;-70.572;2022-11-28T08:46:40;13.02;;;5.35;;
74335;SDS011;62755;-33.398;-70.572;2022-11-28T08:49:10;18.75;;;5.13;;
74335;SDS011;62755;-33.398;-70.572;2022-11-28T08:51:40;17.95;;;5.47;;
74335;SDS011;62755;-33.398;-70.572;2022-11-28T08:54:09;15.73;;;5.35;;
74335;SDS011;62755;-33.398;-70.572;2022-11-28T08:56:39;19.50;;;5.43;;
74335;SDS011;62755;-33.398;-70.572;2022-11-28T08:59:11;12.68;;;4.97;;
74335;SDS011;62755;-33.398;-70.572;2022-11-28T09:01:40;20.15;;;5.82;;
74335;SDS011;62755;-33.398;-70.572;2022-11-28T09:04:10;18.40;;;5.60;;
74335;SDS011;62755;-33.398;-70.572;2022-11-28T09:06:39;13.15;;;5.00;;
74335;SDS011;62755;-33.398;-70.572;2022-11-28T09:09:09;17.23;;;4.82;;
74335;SDS011;62755;-33.398;-70.572;2022-11-28T09:11:39;29.10;;;9.05;;
74335;SDS011;62755;-33.398;-70.572;2022-11-28T09:14:10;17.50;;;6.60;;
74335;SDS011;62755;-33.398;-70.572;2022-11-28T09:16:40;19.13;;;5.03;;
74335;SDS011;62755;-33.398;-70.572;2022-11-28T09:19:09;20.42;;;5.70;;
74335;SDS011;62755;-33.398;-70.572;2022-11-28T09:21:39;10.90;;;5.22;;
74335;SDS011;62755;-33.398;-70.572;2022-11-28T09:24:08;16.55;;;5.15;;
74335;SDS011;62755;-33.398;-70.572;2022-11-28T09:26:38;13.57;;;5.07;;
74335;SDS011;62755;-33.398;-70.572;2022-11-28T09:29:10;13.43;;;5.80;;
74335;SDS011;62755;-33.398;-70.572;2022-11-28T09:31:40;20.85;;;6.05;;
74335;SDS011;62755;-33.398;-70.572;2022-11-28T09:34:09;21.70;;;4.95;;
74335;SDS011;62755;-33.398;-70.572;2022-11-28T09:36:39;18.00;;;5.40;;
74335;SDS011;62755;-33.398;-70.572;2022-11-28T09:39:08;16.48;;;5.85;;
74335;SDS011;62755;-33.398;-70.572;2022-11-28T09:41:40;13.63;;;5.45;;
74335;SDS011;62755;-33.398;-70.572;2022-11-28T09:44:19;18.02;;;5.80;;
74335;SDS011;62755;-33.398;-70.572;2022-11-28T09:46:51;17.00;;;5.47;;
74335;SDS011;62755;-33.398;-70.572;2022-11-28T09:49:24;17.15;;;5.60;;
74335;SDS011;62755;-33.398;-70.572;2022-11-28T09:52:02;24.65;;;6.20;;
74335;SDS011;62755;-33.398;-70.572;2022-11-28T09:54:39;23.23;;;5.57;;
74335;SDS011;62755;-33.398;-70.572;2022-11-28T09:57:15;18.27;;;5.53;;
74335;SDS011;62755;-33.398;-70.572;2022-11-28T09:59:52;17.17;;;5.78;;
74335;SDS011;62755;-33.398;-70.572;2022-11-28T10:02:23;16.60;;;5.60;;
74335;SDS011;62755;-33.398;-70.572;2022-11-28T10:05:01;22.83;;;6.30;;
74335;SDS011;62755;-33.398;-70.572;2022-11-28T10:07:39;20.83;;;5.72;;
74335;SDS011;62755;-33.398;-70.572;2022-11-28T10:10:17;18.67;;;5.82;;
74335;SDS011;62755;-33.398;-70.572;2022-11-28T10:12:58;22.27;;;5.97;;
74335;SDS011;62755;-33.398;-70.572;2022-11-28T10:15:38;22.42;;;6.53;;
74335;SDS011;62755;-33.398;-70.572;2022-11-28T10:18:16;16.77;;;6.13;;
74335;SDS011;62755;-33.398;-70.572;2022-11-28T10:20:55;14.52;;;6.20;;
74335;SDS011;62755;-33.398;-70.572;2022-11-28T10:23:31;22.35;;;6.30;;
74335;SDS011;62755;-33.398;-70.572;2022-11-28T10:26:05;14.80;;;5.60;;
74335;SDS011;62755;-33.398;-70.572;2022-11-28T10:28:40;17.67;;;6.60;;
74335;SDS011;62755;-33.398;-70.572;2022-11-28T10:31:16;13.45;;;6.15;;
74335;SDS011;62755;-33.398;-70.572;2022-11-28T10:33:53;19.95;;;7.28;;
74335;SDS011;62755;-33.398;-70.572;2022-11-28T10:36:26;18.23;;;6.93;;
74335;SDS011;62755;-33.398;-70.572;2022-11-28T10:39:00;17.60;;;7.05;;
74335;SDS011;62755;-33.398;-70.572;2022-11-28T10:41:36;22.98;;;7.78;;
74335;SDS011;62755;-33.398;-70.572;2022-11-28T10:44:33;17.98;;;7.07;;
74335;SDS011;62755;-33.398;-70.572;2022-11-28T10:47:14;18.83;;;7.78;;
74335;SDS011;62755;-33.398;-70.572;2022-11-28T10:49:55;29.85;;;7.70;;
74335;SDS011;62755;-33.398;-70.572;2022-11-28T10:55:15;23.38;;;8.88;;
74335;SDS011;62755;-33.398;-70.572;2022-11-28T10:57:53;25.58;;;8.35;;
74335;SDS011;62755;-33.398;-70.572;2022-11-28T11:00:29;17.80;;;8.15;;
74335;SDS011;62755;-33.398;-70.572;2022-11-28T11:03:01;25.10;;;8.30;;
74335;SDS011;62755;-33.398;-70.572;2022-11-28T11:05:32;26.70;;;8.77;;
74335;SDS011;62755;-33.398;-70.572;2022-11-28T11:08:04;23.45;;;8.70;;
74335;SDS011;62755;-33.398;-70.572;2022-11-28T11:10:46;35.13;;;9.68;;
74335;SDS011;62755;-33.398;-70.572;2022-11-28T11:13:18;29.13;;;9.80;;
74335;SDS011;62755;-33.398;-70.572;2022-11-28T11:15:50;29.27;;;9.10;;
74335;SDS011;62755;-33.398;-70.572;2022-11-28T11:18:28;24.58;;;9.10;;
74335;SDS011;62755;-33.398;-70.572;2022-11-28T11:21:07;22.45;;;9.35;;
74335;SDS011;62755;-33.398;-70.572;2022-11-28T11:23:41;26.83;;;9.57;;
74335;SDS011;62755;-33.398;-70.572;2022-11-28T11:26:19;27.73;;;8.98;;
74335;SDS011;62755;-33.398;-70.572;2022-11-28T11:28:51;24.02;;;9.63;;
74335;SDS011;62755;-33.398;-70.572;2022-11-28T11:31:22;31.52;;;10.43;;
74335;SDS011;62755;-33.398;-70.572;2022-11-28T11:34:02;28.05;;;9.73;;
74335;SDS011;62755;-33.398;-70.572;2022-11-28T11:36:34;31.08;;;11.48;;
74335;SDS011;62755;-33.398;-70.572;2022-11-28T11:39:05;28.15;;;10.82;;
74335;SDS011;62755;-33.398;-70.572;2022-11-28T11:41:44;29.42;;;12.35;;
74335;SDS011;62755;-33.398;-70.572;2022-11-28T11:47:04;35.67;;;12.40;;
74335;SDS011;62755;-33.398;-70.572;2022-11-28T11:49:36;32.50;;;12.65;;
74335;SDS011;62755;-33.398;-70.572;2022-11-28T11:52:12;46.42;;;14.27;;
74335;SDS011;62755;-33.398;-70.572;2022-11-28T11:54:53;27.70;;;13.10;;
74335;SDS011;62755;-33.398;-70.572;2022-11-28T11:57:27;32.20;;;13.88;;
74335;SDS011;62755;-33.398;-70.572;2022-11-28T12:00:03;40.35;;;11.85;;
74335;SDS011;62755;-33.398;-70.572;2022-11-28T12:02:35;33.00;;;13.57;;
74335;SDS011;62755;-33.398;-70.572;2022-11-28T12:05:11;25.90;;;12.88;;
74335;SDS011;62755;-33.398;-70.572;2022-11-28T12:07:47;31.73;;;14.35;;
74335;SDS011;62755;-33.398;-70.572;2022-11-28T12:10:22;32.47;;;13.15;;
74335;SDS011;62755;-33.398;-70.572;2022-11-28T12:12:54;44.40;;;13.95;;
74335;SDS011;62755;-33.398;-70.572;2022-11-28T12:15:26;30.17;;;14.60;;
74335;SDS011;62755;-33.398;-70.572;2022-11-28T12:18:05;31.08;;;15.30;;
74335;SDS011;62755;-33.398;-70.572;2022-11-28T12:20:54;34.53;;;14.23;;
74335;SDS011;62755;-33.398;-70.572;2022-11-28T12:23:35;31.92;;;13.52;;
74335;SDS011;62755;-33.398;-70.572;2022-11-28T12:26:30;25.77;;;14.32;;
74335;SDS011;62755;-33.398;-70.572;2022-11-28T12:29:10;30.58;;;14.02;;
74335;SDS011;62755;-33.398;-70.572;2022-11-28T12:31:50;35.83;;;14.82;;
74335;SDS011;62755;-33.398;-70.572;2022-11-28T12:34:34;26.33;;;14.98;;
74335;SDS011;62755;-33.398;-70.572;2022-11-28T12:37:15;32.45;;;16.17;;
74335;SDS011;62755;-33.398;-70.572;2022-11-28T12:39:58;29.88;;;15.05;;
74335;SDS011;62755;-33.398;-70.572;2022-11-28T12:42:40;32.63;;;16.17;;
74335;SDS011;62755;-33.398;-70.572;2022-11-28T12:45:30;36.95;;;16.02;;
74335;SDS011;62755;-33.398;-70.572;2022-11-28T12:48:11;42.78;;;15.55;;
74335;SDS011;62755;-33.398;-70.572;2022-11-28T12:50:57;35.00;;;16.30;;
74335;SDS011;62755;-33.398;-70.572;2022-11-28T12:53:43;33.70;;;16.20;;
74335;SDS011;62755;-33.398;-70.572;2022-11-28T12:56:28;44.95;;;16.75;;
74335;SDS011;62755;-33.398;-70.572;2022-11-28T12:59:06;32.30;;;17.67;;
74335;SDS011;62755;-33.398;-70.572;2022-11-28T13:01:47;40.90;;;17.05;;
74335;SDS011;62755;-33.398;-70.572;2022-11-28T13:04:41;44.13;;;17.88;;
74335;SDS011;62755;-33.398;-70.572;2022-11-28T13:07:23;39.22;;;17.90;;
74335;SDS011;62755;-33.398;-70.572;2022-11-28T13:10:03;55.13;;;16.90;;
74335;SDS011;62755;-33.398;-70.572;2022-11-28T13:12:43;50.22;;;17.05;;
74335;SDS011;62755;-33.398;-70.572;2022-11-28T13:15:25;38.70;;;16.98;;
74335;SDS011;62755;-33.398;-70.572;2022-11-28T13:18:10;41.70;;;17.58;;
74335;SDS011;62755;-33.398;-70.572;2022-11-28T13:20:52;50.58;;;18.75;;
74335;SDS011;62755;-33.398;-70.572;2022-11-28T13:23:27;34.05;;;18.48;;
74335;SDS011;62755;-33.398;-70.572;2022-11-28T13:26:04;40.63;;;19.13;;
74335;SDS011;62755;-33.398;-70.572;2022-11-28T13:28:40;45.50;;;17.20;;
74335;SDS011;62755;-33.398;-70.572;2022-11-28T13:31:22;35.97;;;19.60;;
74335;SDS011;62755;-33.398;-70.572;2022-11-28T13:33:57;35.97;;;19.60;;
74335;SDS011;62755;-33.398;-70.572;2022-11-28T13:36:31;42.42;;;18.73;;
74335;SDS011;62755;-33.398;-70.572;2022-11-28T13:39:06;39.85;;;19.70;;
74335;SDS011;62755;-33.398;-70.572;2022-11-28T13:41:43;45.60;;;19.98;;
74335;SDS011;62755;-33.398;-70.572;2022-11-28T13:44:16;38.97;;;19.30;;
74335;SDS011;62755;-33.398;-70.572;2022-11-28T13:46:48;41.65;;;18.23;;
74335;SDS011;62755;-33.398;-70.572;2022-11-28T13:49:19;38.35;;;19.23;;
74335;SDS011;62755;-33.398;-70.572;2022-11-28T13:55:03;37.28;;;19.58;;
74335;SDS011;62755;-33.398;-70.572;2022-11-28T13:57:55;41.55;;;19.33;;
74335;SDS011;62755;-33.398;-70.572;2022-11-28T14:00:25;38.90;;;20.88;;
74335;SDS011;62755;-33.398;-70.572;2022-11-28T14:02:55;40.88;;;21.73;;
74335;SDS011;62755;-33.398;-70.572;2022-11-28T14:05:27;37.45;;;20.80;;
74335;SDS011;62755;-33.398;-70.572;2022-11-28T14:07:59;45.70;;;21.60;;
74335;SDS011;62755;-33.398;-70.572;2022-11-28T14:10:44;41.58;;;21.10;;
74335;SDS011;62755;-33.398;-70.572;2022-11-28T14:13:32;42.45;;;20.58;;
74335;SDS011;62755;-33.398;-70.572;2022-11-28T14:16:23;40.88;;;23.45;;
74335;SDS011;62755;-33.398;-70.572;2022-11-28T14:19:11;46.78;;;22.40;;
74335;SDS011;62755;-33.398;-70.572;2022-11-28T14:21:54;39.63;;;21.38;;
74335;SDS011;62755;-33.398;-70.572;2022-11-28T14:24:35;40.08;;;21.05;;
74335;SDS011;62755;-33.398;-70.572;2022-11-28T14:27:15;44.78;;;21.90;;
74335;SDS011;62755;-33.398;-70.572;2022-11-28T14:29:51;43.10;;;22.98;;
74335;SDS011;62755;-33.398;-70.572;2022-11-28T14:32:26;48.50;;;21.83;;
74335;SDS011;62755;-33.398;-70.572;2022-11-28T14:35:01;52.03;;;21.80;;
74335;SDS011;62755;-33.398;-70.572;2022-11-28T14:37:41;53.38;;;22.58;;
74335;SDS011;62755;-33.398;-70.572;2022-11-28T14:43:34;48.45;;;24.02;;
74335;SDS011;62755;-33.398;-70.572;2022-11-28T14:46:23;44.70;;;22.42;;
74335;SDS011;62755;-33.398;-70.572;2022-11-28T14:52:07;38.88;;;22.90;;